Time;durP1;ratioP1;P1;durP2;ratioP2;P2;SDS_P1;SDS_P2;PMS_P1;PMS_P2;Temp;Humidity;BMP_temperature;BMP_pressure;BME280_temperature;BME280_humidity;BME280_pressure;Samples;Min_cycle;Max_cycle;Signal;HPM_P1;HPM_P2
2023/04/08 00:04:19;;;;;;;0.30;0.23;;;;;;;15.63;50.48;96893.03;10340239;28;20483;-24
2023/04/08 00:09:19;;;;;;;0.30;0.22;;;;;;;15.62;50.27;96896.34;10382171;28;20498;-24
2023/04/08 00:14:20;;;;;;;0.65;0.30;;;;;;;15.64;49.71;96893.84;10400432;28;20256;-24
2023/04/08 00:19:20;;;;;;;0.30;0.30;;;;;;;15.62;49.36;96883.72;10387519;28;20079;-24
2023/04/08 00:24:21;;;;;;;0.30;0.20;;;;;;;15.63;49.95;96893.03;10368501;28;20040;-24
2023/04/08 00:29:21;;;;;;;0.33;0.33;;;;;;;15.62;50.37;96885.41;10376081;28;20033;-24
2023/04/08 00:34:21;;;;;;;0.28;0.25;;;;;;;15.63;50.10;96889.63;10389094;28;20033;-25
2023/04/08 00:39:22;;;;;;;0.60;0.30;;;;;;;15.60;49.12;96879.50;10341253;28;20034;-24
2023/04/08 00:44:22;;;;;;;0.20;0.20;;;;;;;15.59;48.43;96878.66;10390580;28;20282;-24
2023/04/08 00:49:23;;;;;;;0.20;0.20;;;;;;;15.61;48.78;96886.25;10390994;28;20030;-24
2023/04/08 00:54:24;;;;;;;0.20;0.13;;;;;;;15.63;51.52;96894.69;10389251;28;20044;-24
2023/04/08 00:59:25;;;;;;;0.20;0.20;;;;;;;15.67;51.89;96893.88;10381909;28;20029;-24
2023/04/08 01:04:37;;;;;;;0.40;0.40;;;;;;;15.68;51.75;96893.91;10375551;28;20030;-24
2023/04/08 01:09:41;;;;;;;0.10;0.10;;;;;;;15.57;50.72;96885.34;10387672;28;20038;-24
2023/04/08 01:14:45;;;;;;;0.20;0.20;;;;;;;15.54;50.41;96880.25;10372275;28;20042;-24
2023/04/08 01:19:47;;;;;;;0.40;0.30;;;;;;;15.57;50.75;96885.34;10378669;28;20038;-24
2023/04/08 01:24:50;;;;;;;0.35;0.35;;;;;;;15.59;49.81;96883.69;10376251;28;20481;-24
2023/04/08 01:29:51;;;;;;;0.57;0.30;;;;;;;15.60;49.14;96882.03;10373259;28;20045;-24
2023/04/08 01:34:53;;;;;;;0.50;0.20;;;;;;;15.57;50.39;96880.31;10392358;28;20041;-24
2023/04/08 01:39:55;;;;;;;0.20;0.20;;;;;;;15.59;48.37;96878.66;10409414;28;20056;-24
2023/04/08 01:44:58;;;;;;;0.25;0.20;;;;;;;15.59;49.29;96886.22;10375937;28;20057;-25
2023/04/08 01:50:00;;;;;;;0.32;0.25;;;;;;;15.59;50.14;96883.69;10364936;28;20116;-24
2023/04/08 01:55:00;;;;;;;0.22;0.22;;;;;;;15.58;50.33;96876.09;10399243;28;20293;-24
2023/04/08 02:00:05;;;;;;;0.38;0.30;;;;;;;15.58;50.16;96888.69;10339546;28;20029;-24
2023/04/08 02:05:20;;;;;;;0.08;0.08;;;;;;;15.56;48.85;96886.19;10376903;28;20044;-24
2023/04/08 02:10:20;;;;;;;0.20;0.20;;;;;;;15.58;50.52;96891.22;10335101;28;20411;-25
2023/04/08 02:15:21;;;;;;;0.30;0.30;;;;;;;15.54;50.47;96892.84;10373458;28;20067;-24
2023/04/08 02:20:36;;;;;;;0.10;0.10;;;;;;;15.60;51.79;96882.03;10362986;28;20708;-24
2023/04/08 02:25:39;;;;;;;0.20;0.20;;;;;;;15.60;51.65;96887.91;10361211;28;20045;-24
2023/04/08 02:30:41;;;;;;;0.50;0.30;;;;;;;15.61;50.75;96897.16;10396924;28;20120;-25
2023/04/08 02:35:44;;;;;;;0.20;0.20;;;;;;;15.51;50.19;96895.34;10363720;28;20034;-24
2023/04/08 02:40:44;;;;;;;0.30;0.30;;;;;;;15.51;50.67;96900.41;10333996;28;20037;-24
2023/04/08 02:45:45;;;;;;;0.50;0.30;;;;;;;15.51;50.86;96890.31;10393183;28;20494;-25
2023/04/08 02:50:45;;;;;;;0.30;0.30;;;;;;;15.55;50.67;96892.06;10381166;28;20300;-24
2023/04/08 02:55:45;;;;;;;0.20;0.20;;;;;;;15.52;50.94;96897.03;10350097;28;20088;-25
2023/04/08 03:00:46;;;;;;;0.30;0.30;;;;;;;15.50;50.62;96891.13;10376602;28;20035;-24
2023/04/08 03:05:46;;;;;;;0.20;0.20;;;;;;;15.51;50.67;96895.34;10371321;28;20052;-24
2023/04/08 03:10:50;;;;;;;0.10;0.10;;;;;;;15.52;50.51;96899.56;10361112;28;20044;-25
2023/04/08 03:15:50;;;;;;;0.38;0.38;;;;;;;15.52;50.81;96897.03;10370832;28;20041;-24
2023/04/08 03:20:51;;;;;;;0.40;0.20;;;;;;;15.52;49.84;96898.72;10363356;28;20034;-28
2023/04/08 03:25:53;;;;;;;0.40;0.23;;;;;;;15.51;50.82;96895.34;10406678;28;20052;-24
2023/04/08 03:30:53;;;;;;;0.25;0.25;;;;;;;15.50;50.30;96893.66;10401694;28;20030;-24
2023/04/08 03:35:54;;;;;;;0.30;0.20;;;;;;;15.51;51.24;96902.09;10369549;28;20171;-25
2023/04/08 03:40:54;;;;;;;0.30;0.30;;;;;;;15.52;51.25;96901.25;10349711;28;20041;-24
2023/04/08 03:45:55;;;;;;;0.10;0.10;;;;;;;15.54;52.02;96897.91;10366891;28;20784;-24
2023/04/08 03:50:55;;;;;;;0.38;0.38;;;;;;;15.49;51.38;96886.91;10409987;28;20095;-24
2023/04/08 03:55:56;;;;;;;0.20;0.20;;;;;;;15.52;50.67;96886.94;10363800;28;20038;-24
2023/04/08 04:00:57;;;;;;;0.45;0.30;;;;;;;15.48;50.26;96895.31;10360979;28;20060;-24
2023/04/08 04:05:57;;;;;;;0.30;0.30;;;;;;;15.50;50.60;96886.09;10382323;28;20063;-24
2023/04/08 04:10:58;;;;;;;0.10;0.10;;;;;;;15.49;51.25;96886.91;10366285;28;20042;-24
2023/04/08 04:15:59;;;;;;;0.30;0.20;;;;;;;15.48;50.66;96895.31;10352233;28;20038;-25
2023/04/08 04:20:59;;;;;;;0.28;0.22;;;;;;;15.48;50.82;96894.47;10373059;28;20040;-24
2023/04/08 04:26:00;;;;;;;0.47;0.30;;;;;;;15.45;51.25;96892.72;10394299;28;20379;-25
2023/04/08 04:31:02;;;;;;;0.30;0.30;;;;;;;15.47;50.55;96895.28;10383711;28;20033;-24
2023/04/08 04:36:03;;;;;;;0.22;0.20;;;;;;;15.46;50.91;96902.00;10373037;28;20030;-24
2023/04/08 04:41:03;;;;;;;0.23;0.20;;;;;;;15.46;50.46;96896.94;10398175;28;20033;-25
2023/04/08 04:46:06;;;;;;;0.30;0.20;;;;;;;15.43;51.13;96901.97;10400022;28;20299;-24
2023/04/08 04:51:06;;;;;;;0.15;0.15;;;;;;;15.41;51.11;96901.09;10367599;28;20025;-24
2023/04/08 04:56:06;;;;;;;0.30;0.30;;;;;;;15.45;50.84;96919.66;10387631;28;20034;-24
2023/04/08 05:01:07;;;;;;;0.20;0.20;;;;;;;15.46;51.09;96922.19;10404623;28;20312;-24
2023/04/08 05:06:07;;;;;;;0.20;0.20;;;;;;;15.46;51.58;96926.38;10381025;28;20030;-24
2023/04/08 05:11:09;;;;;;;0.22;0.20;;;;;;;15.50;51.64;96926.47;10350129;28;20406;-24
2023/04/08 05:16:10;;;;;;;0.20;0.20;;;;;;;15.53;51.47;96930.72;10355135;28;20506;-24
2023/04/08 05:21:10;;;;;;;0.22;0.22;;;;;;;15.47;50.87;96939.03;10385715;28;20026;-24
2023/04/08 05:26:10;;;;;;;0.20;0.20;;;;;;;15.44;51.05;96949.06;10385937;28;20048;-24
2023/04/08 05:31:11;;;;;;;0.30;0.30;;;;;;;15.44;50.82;96938.16;10367022;28;20417;-24
2023/04/08 05:36:12;;;;;;;0.20;0.20;;;;;;;15.45;50.87;96945.72;10350618;28;20030;-24
2023/04/08 05:41:12;;;;;;;0.30;0.30;;;;;;;15.44;50.97;96938.97;10385291;28;20030;-24
2023/04/08 05:46:12;;;;;;;0.30;0.30;;;;;;;15.43;50.96;96947.38;10399538;28;20044;-24
2023/04/08 05:51:14;;;;;;;0.20;0.20;;;;;;;15.42;51.25;96948.19;10362188;28;20420;-24
2023/04/08 05:56:14;;;;;;;0.20;0.17;;;;;;;15.44;51.29;96948.22;10364855;28;20039;-24
2023/04/08 06:01:15;;;;;;;0.20;0.20;;;;;;;15.41;51.10;96964.16;10382700;28;20512;-24
2023/04/08 06:06:15;;;;;;;0.20;0.20;;;;;;;15.41;51.02;96970.88;10394188;28;20033;-24
2023/04/08 06:11:15;;;;;;;0.20;0.20;;;;;;;15.43;51.30;96969.25;10391341;28;20323;-24
2023/04/08 06:16:16;;;;;;;0.60;0.35;;;;;;;15.39;50.97;96980.09;10401565;28;20292;-24
2023/04/08 06:21:16;;;;;;;0.20;0.13;;;;;;;15.40;51.03;96982.66;10385244;28;20087;-24
2023/04/08 06:26:17;;;;;;;0.20;0.20;;;;;;;15.39;51.52;96970.00;10393020;28;20064;-24
2023/04/08 06:31:17;;;;;;;0.20;0.20;;;;;;;15.43;52.09;96977.66;10410419;28;20036;-24
2023/04/08 06:36:17;;;;;;;0.20;0.20;;;;;;;15.47;51.48;96978.53;10387852;28;20064;-24
2023/04/08 06:41:18;;;;;;;0.23;0.23;;;;;;;15.48;51.29;96981.09;10380437;28;20038;-25
2023/04/08 06:46:18;;;;;;;0.30;0.27;;;;;;;15.40;50.81;96982.66;10364704;28;20041;-24
2023/04/08 06:51:19;;;;;;;0.30;0.30;;;;;;;15.40;50.56;96989.34;10367334;28;20030;-24
2023/04/08 06:56:21;;;;;;;0.35;0.20;;;;;;;15.39;50.86;96991.06;10376728;28;20037;-24
2023/04/08 07:01:22;;;;;;;0.20;0.20;;;;;;;15.39;50.63;97001.13;10372023;28;20440;-25
2023/04/08 07:06:23;;;;;;;0.10;0.10;;;;;;;15.39;51.15;97000.28;10385918;28;20080;-24
2023/04/08 07:11:23;;;;;;;0.20;0.20;;;;;;;15.39;50.89;97006.19;10369273;28;20029;-25
2023/04/08 07:16:24;;;;;;;0.20;0.20;;;;;;;15.38;51.07;97001.97;10391651;28;20033;-24
2023/04/08 07:21:24;;;;;;;0.10;0.10;;;;;;;15.38;51.15;97009.53;10368611;28;20281;-24
2023/04/08 07:26:24;;;;;;;0.10;0.10;;;;;;;15.38;51.05;97009.53;10373974;28;20295;-25
2023/04/08 07:31:25;;;;;;;0.10;0.10;;;;;;;15.38;51.20;97013.72;10362001;28;20029;-24
2023/04/08 07:36:25;;;;;;;0.20;0.20;;;;;;;15.36;50.83;97012.84;10379819;28;20037;-24
2023/04/08 07:41:26;;;;;;;0.20;0.20;;;;;;;15.37;51.38;97012.84;10350303;28;20026;-24
2023/04/08 07:46:26;;;;;;;0.20;0.20;;;;;;;15.37;51.04;97017.06;10366267;28;20038;-24
2023/04/08 07:51:26;;;;;;;0.50;0.27;;;;;;;15.33;51.24;97010.25;10356278;28;20445;-24
2023/04/08 07:56:27;;;;;;;0.30;0.20;;;;;;;15.41;51.46;97014.63;10385230;28;20402;-24
2023/04/08 08:01:29;;;;;;;0.30;0.30;;;;;;;15.46;51.62;97017.22;10378945;28;20295;-24
2023/04/08 08:06:32;;;;;;;0.20;0.20;;;;;;;15.46;51.07;97018.03;10392972;28;20439;-24
2023/04/08 08:11:33;;;;;;;0.22;0.20;;;;;;;15.35;50.87;97014.50;10374045;28;20418;-24
2023/04/08 08:16:33;;;;;;;0.30;0.30;;;;;;;15.35;50.19;97019.56;10378567;28;20041;-24
2023/04/08 08:21:36;;;;;;;0.20;0.20;;;;;;;15.33;51.11;97025.38;10372665;28;20088;-25
2023/04/08 08:26:37;;;;;;;0.20;0.20;;;;;;;15.37;51.11;97022.13;10369306;28;20295;-24
2023/04/08 08:31:37;;;;;;;0.22;0.22;;;;;;;15.36;51.16;97025.47;10351027;28;20382;-24
2023/04/08 08:36:38;;;;;;;0.13;0.13;;;;;;;15.36;51.00;97041.44;10398225;28;20484;-24
2023/04/08 08:41:39;;;;;;;0.40;0.40;;;;;;;15.36;50.76;97033.84;10388970;28;20411;-24
2023/04/08 08:46:43;;;;;;;0.30;0.20;;;;;;;15.36;50.86;97040.59;10350967;28;20077;-24
2023/04/08 08:51:45;;;;;;;0.25;0.15;;;;;;;15.35;51.28;97038.91;10367200;28;20069;-24
2023/04/08 08:56:47;;;;;;;0.40;0.30;;;;;;;15.36;50.70;97045.63;10352429;28;20577;-24
2023/04/08 09:01:48;;;;;;;0.20;0.20;;;;;;;15.34;51.24;97048.13;10348779;28;20042;-25
2023/04/08 09:07:06;;;;;;;0.40;0.38;;;;;;;15.34;50.97;97053.16;10382411;28;20502;-24
2023/04/08 09:12:07;;;;;;;0.20;0.20;;;;;;;15.34;50.57;97058.22;10401065;28;20041;-24
2023/04/08 09:17:08;;;;;;;0.20;0.20;;;;;;;15.33;51.39;97051.47;10384200;28;20085;-24
2023/04/08 09:22:10;;;;;;;0.43;0.40;;;;;;;15.40;51.86;97058.34;10388888;28;20493;-24
2023/04/08 09:27:12;;;;;;;0.40;0.30;;;;;;;15.42;51.66;97054.16;10374910;28;20040;-24
2023/04/08 09:32:13;;;;;;;0.20;0.20;;;;;;;15.47;51.68;97057.63;10373438;28;20409;-24
2023/04/08 09:37:13;;;;;;;0.20;0.20;;;;;;;15.33;50.48;97061.56;10369618;28;20052;-24
2023/04/08 09:42:14;;;;;;;0.30;0.30;;;;;;;15.35;50.54;97062.44;10376865;28;20098;-25
2023/04/08 09:47:22;;;;;;;0.45;0.20;;;;;;;15.34;50.90;97065.78;10377544;28;20073;-25
2023/04/08 09:52:44;;;;;;;0.10;0.10;;;;;;;15.35;50.72;97070.00;10386757;28;20040;-24
2023/04/08 09:58:20;;;;;;;0.22;0.22;;;;;;;15.35;50.80;97064.13;10382930;28;20070;-24
2023/04/08 10:03:23;;;;;;;0.30;0.30;;;;;;;15.33;50.85;97069.13;10379569;28;20088;-24
2023/04/08 10:08:26;;;;;;;0.20;0.20;;;;;;;15.33;51.02;97063.22;10384228;28;20037;-24
2023/04/08 10:13:27;;;;;;;0.17;0.17;;;;;;;15.32;51.27;97066.56;10405630;28;20034;-24
2023/04/08 10:18:31;;;;;;;0.20;0.20;;;;;;;15.33;50.94;97071.66;10377577;28;20489;-24
2023/04/08 10:23:53;;;;;;;0.75;0.35;;;;;;;15.32;51.20;97069.97;10376088;28;20037;-25
2023/04/08 10:28:54;;;;;;;0.20;0.20;;;;;;;15.31;50.62;97073.31;10372341;28;20053;-25
2023/04/08 10:33:55;;;;;;;0.17;0.17;;;;;;;15.32;50.90;97064.91;10374091;28;20066;-24
2023/04/08 10:38:56;;;;;;;0.20;0.20;;;;;;;15.32;51.11;97064.91;10372684;28;20278;-24
2023/04/08 10:43:56;;;;;;;0.25;0.25;;;;;;;15.33;51.84;97065.75;10404500;28;20456;-24
2023/04/08 10:49:02;;;;;;;0.20;0.20;;;;;;;15.39;52.20;97060.81;10371315;28;20049;-24
2023/04/08 10:54:07;;;;;;;0.30;0.30;;;;;;;15.40;51.53;97065.91;10375206;28;20033;-24
2023/04/08 10:59:08;;;;;;;0.20;0.20;;;;;;;15.38;50.99;97056.59;10379157;28;20034;-24
2023/04/08 11:04:17;;;;;;;0.30;0.28;;;;;;;15.34;50.94;97062.44;10365963;28;20034;-24
2023/04/08 11:09:17;;;;;;;0.20;0.20;;;;;;;15.32;50.88;97069.97;10382926;28;20132;-24
2023/04/08 11:14:20;;;;;;;0.45;0.20;;;;;;;15.32;50.84;97061.53;10387169;28;20428;-25
2023/04/08 11:19:21;;;;;;;0.20;0.20;;;;;;;15.28;50.97;97053.03;10375990;28;20452;-24
2023/04/08 11:24:22;;;;;;;0.15;0.15;;;;;;;15.30;50.88;97053.94;10392003;28;20030;-24
2023/04/08 11:29:22;;;;;;;0.28;0.25;;;;;;;15.31;50.49;97057.31;10373152;28;20564;-25
2023/04/08 11:34:24;;;;;;;0.30;0.27;;;;;;;15.30;50.45;97058.09;10389048;28;20030;-24
2023/04/08 11:39:25;;;;;;;0.30;0.30;;;;;;;15.30;50.76;97061.50;10382301;28;20292;-24
2023/04/08 11:44:30;;;;;;;0.47;0.30;;;;;;;15.30;50.50;97056.44;10390411;28;20030;-24
2023/04/08 11:49:43;;;;;;;0.10;0.10;;;;;;;15.30;50.01;97041.31;10370293;28;20064;-24
2023/04/08 11:54:43;;;;;;;0.30;0.20;;;;;;;15.29;50.37;97054.72;10358752;28;20040;-24
2023/04/08 11:59:44;;;;;;;0.40;0.13;;;;;;;15.30;50.87;97050.53;10349255;28;20037;-24
2023/04/08 12:04:44;;;;;;;0.30;0.30;;;;;;;15.30;50.63;97046.34;10399956;28;20045;-24
2023/04/08 12:09:44;;;;;;;0.23;0.20;;;;;;;15.31;52.02;97048.09;10372643;28;20414;-24
2023/04/08 12:14:45;;;;;;;0.37;0.20;;;;;;;15.38;52.11;97044.84;10366421;28;20044;-24
2023/04/08 12:19:45;;;;;;;0.20;0.20;;;;;;;15.37;51.58;97048.16;10361598;28;20041;-24
2023/04/08 12:24:46;;;;;;;0.13;0.10;;;;;;;15.35;51.08;97043.94;10372790;28;20100;-24
2023/04/08 12:29:48;;;;;;;0.20;0.20;;;;;;;15.29;50.55;97046.31;10360063;28;20041;-24
2023/04/08 12:34:48;;;;;;;0.20;0.20;;;;;;;15.29;50.82;97039.59;10356856;28;20405;-24
2023/04/08 12:39:48;;;;;;;0.37;0.30;;;;;;;15.29;50.32;97044.63;10361471;28;20045;-24
2023/04/08 12:44:49;;;;;;;0.43;0.30;;;;;;;15.30;50.47;97035.41;10374117;28;20148;-24
2023/04/08 12:49:49;;;;;;;0.30;0.30;;;;;;;15.29;50.79;97032.03;10346058;28;20666;-24
2023/04/08 12:54:49;;;;;;;0.20;0.20;;;;;;;15.28;50.50;97027.81;10380138;28;20513;-25
2023/04/08 12:59:50;;;;;;;0.30;0.30;;;;;;;15.29;49.45;97028.66;10387448;28;20120;-24
2023/04/08 13:04:52;;;;;;;0.73;0.30;;;;;;;15.29;50.70;97033.72;10377715;28;20308;-24
2023/04/08 13:09:52;;;;;;;0.10;0.10;;;;;;;15.28;50.04;97027.81;10374458;28;20064;-25
2023/04/08 13:14:54;;;;;;;0.30;0.23;;;;;;;15.28;50.39;97030.31;10398971;28;20036;-24
2023/04/08 13:19:54;;;;;;;0.20;0.20;;;;;;;15.29;49.31;97033.72;10384472;28;20066;-24
2023/04/08 13:24:54;;;;;;;0.30;0.30;;;;;;;15.28;49.97;97026.97;10381328;28;20042;-24
2023/04/08 13:29:55;;;;;;;0.30;0.30;;;;;;;15.28;49.30;97034.53;10389436;28;20037;-24
2023/04/08 13:34:55;;;;;;;0.27;0.20;;;;;;;15.27;51.32;97022.75;10390676;28;20037;-24
2023/04/08 13:39:56;;;;;;;0.20;0.20;;;;;;;15.34;51.99;97032.16;10360129;28;20529;-24
2023/04/08 13:44:56;;;;;;;0.40;0.20;;;;;;;15.37;51.71;97027.16;10366083;28;20300;-24
2023/04/08 13:49:57;;;;;;;0.13;0.13;;;;;;;15.32;51.41;97039.69;10394673;28;20033;-24
2023/04/08 13:54:57;;;;;;;0.20;0.20;;;;;;;15.25;50.73;97026.91;10351233;28;20418;-24
2023/04/08 13:59:57;;;;;;;0.57;0.20;;;;;;;15.26;50.62;97039.53;10379506;28;20041;-25
2023/04/08 14:04:58;;;;;;;0.20;0.20;;;;;;;15.28;50.69;97032.00;10355167;28;20502;-25
2023/04/08 14:09:58;;;;;;;0.20;0.20;;;;;;;15.27;50.16;97031.16;10396241;28;20460;-24
2023/04/08 14:14:59;;;;;;;0.27;0.20;;;;;;;15.26;49.73;97028.63;10373552;28;20064;-24
2023/04/08 14:19:59;;;;;;;0.30;0.30;;;;;;;15.26;50.83;97033.66;10396511;28;20037;-24
2023/04/08 14:25:00;;;;;;;0.40;0.20;;;;;;;15.26;50.17;97034.50;10372716;28;20049;-24
2023/04/08 14:30:00;;;;;;;0.13;0.13;;;;;;;15.26;49.73;97031.97;10394580;28;20068;-24
2023/04/08 14:35:01;;;;;;;0.30;0.28;;;;;;;15.25;50.40;97032.81;10371427;28;20180;-24
2023/04/08 14:40:02;;;;;;;0.10;0.10;;;;;;;15.26;50.82;97043.75;10387548;28;20033;-24
2023/04/08 14:45:02;;;;;;;0.32;0.32;;;;;;;15.23;50.73;97029.41;10378736;28;20040;-23
2023/04/08 14:50:03;;;;;;;0.10;0.10;;;;;;;15.23;50.32;97031.94;10346859;28;20041;-24
2023/04/08 14:55:04;;;;;;;0.17;0.17;;;;;;;15.24;50.84;97041.19;10363342;28;20446;-24
2023/04/08 15:00:06;;;;;;;0.30;0.30;;;;;;;15.25;51.58;97040.38;10387027;28;20033;-25
2023/04/08 15:05:07;;;;;;;0.20;0.20;;;;;;;15.32;52.18;97037.16;10365803;28;20037;-24
2023/04/08 15:10:08;;;;;;;0.30;0.20;;;;;;;15.34;51.71;97042.25;10361604;28;20543;-24
2023/04/08 15:15:09;;;;;;;0.55;0.30;;;;;;;15.29;50.57;97051.38;10411164;28;20033;-24
2023/04/08 15:20:10;;;;;;;0.30;0.30;;;;;;;15.24;50.75;97051.28;10365388;28;20083;-24
2023/04/08 15:25:10;;;;;;;0.20;0.20;;;;;;;15.24;50.94;97053.81;10376865;28;20156;-25
2023/04/08 15:30:11;;;;;;;0.20;0.20;;;;;;;15.24;51.17;97046.25;10378031;28;20038;-25
2023/04/08 15:35:11;;;;;;;0.20;0.20;;;;;;;15.23;50.89;97049.59;10365010;28;20072;-24
2023/04/08 15:40:12;;;;;;;0.20;0.20;;;;;;;15.22;51.33;97047.91;10376383;28;20509;-25
2023/04/08 15:45:12;;;;;;;0.10;0.10;;;;;;;15.23;50.43;97049.59;10377927;28;20037;-24
2023/04/08 15:50:13;;;;;;;0.40;0.37;;;;;;;15.21;50.99;97050.38;10383722;28;20089;-24
2023/04/08 15:55:14;;;;;;;0.10;0.10;;;;;;;15.21;50.76;97052.91;10369010;28;20085;-25
2023/04/08 16:00:23;;;;;;;0.20;0.20;;;;;;;15.21;50.91;97053.75;10493943;28;20387;-28
2023/04/08 16:05:24;;;;;;;0.20;0.20;;;;;;;15.21;51.23;97058.81;10478872;28;20560;-30
2023/04/08 16:10:24;;;;;;;0.40;0.30;;;;;;;15.20;51.11;97059.59;10468450;28;20095;-29
2023/04/08 16:15:25;;;;;;;0.20;0.20;;;;;;;15.21;50.66;97057.94;10485603;28;20048;-28
2023/04/08 16:20:27;;;;;;;0.30;0.30;;;;;;;15.20;50.76;97049.50;10482290;28;20041;-29
2023/04/08 16:25:27;;;;;;;0.20;0.20;;;;;;;15.16;51.99;97047.78;10483817;28;20398;-28
2023/04/08 16:30:28;;;;;;;0.20;0.20;;;;;;;15.27;52.22;97061.41;10476713;28;20033;-27
2023/04/08 16:35:28;;;;;;;0.30;0.30;;;;;;;15.30;51.99;97060.63;10459528;28;20041;-28
2023/04/08 16:40:31;;;;;;;0.20;0.20;;;;;;;15.21;50.61;97065.50;10482876;28;20396;-28
2023/04/08 16:45:32;;;;;;;0.10;0.10;;;;;;;15.20;50.70;97066.34;10475402;28;20033;-28
2023/04/08 16:50:32;;;;;;;0.25;0.20;;;;;;;15.20;50.73;97064.66;10483523;28;20055;-29
2023/04/08 16:55:36;;;;;;;0.20;0.20;;;;;;;15.18;50.55;97076.38;10473920;28;20402;-28
2023/04/08 17:00:37;;;;;;;0.20;0.20;;;;;;;15.20;51.15;97073.91;10474999;28;20290;-28
2023/04/08 17:05:38;;;;;;;0.20;0.20;;;;;;;15.18;51.40;97071.34;10470638;28;20032;-28
2023/04/08 17:10:38;;;;;;;0.22;0.22;;;;;;;15.19;50.98;97078.09;10452250;28;20041;-29
2023/04/08 17:15:38;;;;;;;0.20;0.20;;;;;;;15.20;50.41;97078.94;10446818;28;20044;-28
2023/04/08 17:20:39;;;;;;;0.20;0.20;;;;;;;15.19;51.05;97082.28;10435436;28;20041;-28
2023/04/08 17:25:40;;;;;;;0.13;0.10;;;;;;;15.18;50.61;97083.94;10429107;28;20021;-28
2023/04/08 17:30:40;;;;;;;0.30;0.30;;;;;;;15.18;51.22;97086.47;10446773;28;20291;-28
2023/04/08 17:35:41;;;;;;;0.20;0.20;;;;;;;15.18;51.23;97088.16;10449947;28;20036;-29
2023/04/08 17:40:41;;;;;;;0.20;0.20;;;;;;;15.17;50.86;97084.78;10441081;28;20540;-28
2023/04/08 17:45:41;;;;;;;0.10;0.10;;;;;;;15.17;51.70;97089.81;10446196;28;20029;-28
2023/04/08 17:50:42;;;;;;;0.40;0.30;;;;;;;15.17;52.10;97104.09;10426760;28;20493;-28
2023/04/08 17:55:45;;;;;;;0.20;0.20;;;;;;;15.22;51.78;97105.03;10437276;28;20094;-29
2023/04/08 18:00:46;;;;;;;0.30;0.30;;;;;;;15.28;51.59;97112.72;10445988;28;20029;-29
2023/04/08 18:05:46;;;;;;;0.35;0.30;;;;;;;15.25;51.06;97118.56;10431169;28;20075;-29
2023/04/08 18:10:47;;;;;;;0.20;0.20;;;;;;;15.19;51.15;97118.44;10439144;28;20537;-29
2023/04/08 18:15:50;;;;;;;0.30;0.30;;;;;;;15.16;51.03;97118.38;10452880;28;20468;-29
2023/04/08 18:20:51;;;;;;;0.30;0.20;;;;;;;15.17;51.08;97130.16;10440319;28;20036;-29
2023/04/08 18:25:51;;;;;;;0.20;0.20;;;;;;;15.15;51.04;97129.31;10438459;28;20514;-29
2023/04/08 18:30:51;;;;;;;0.27;0.27;;;;;;;15.16;51.28;97143.59;10448611;28;20032;-28
2023/04/08 18:35:52;;;;;;;0.20;0.20;;;;;;;15.16;51.01;97136.03;10430979;28;20029;-28
2023/04/08 18:40:52;;;;;;;0.20;0.20;;;;;;;15.16;51.44;97155.34;10415403;28;20033;-29
2023/04/08 18:45:52;;;;;;;0.27;0.27;;;;;;;15.16;51.32;97153.69;10451983;28;20025;-29
2023/04/08 18:50:53;;;;;;;0.20;0.20;;;;;;;15.15;51.84;97157.03;10439358;28;20029;-29
2023/04/08 18:55:53;;;;;;;0.20;0.20;;;;;;;15.15;51.34;97168.78;10441342;28;20288;-29
2023/04/08 19:00:54;;;;;;;0.23;0.20;;;;;;;15.15;50.98;97166.25;10438521;28;20279;-28
2023/04/08 19:05:54;;;;;;;0.28;0.20;;;;;;;15.15;51.70;97169.66;10430975;28;20035;-29
2023/04/08 19:10:55;;;;;;;0.27;0.20;;;;;;;15.13;51.42;97168.78;10448883;28;20087;-28
2023/04/08 19:15:56;;;;;;;0.32;0.25;;;;;;;15.12;51.90;97167.03;10438065;28;20067;-28
2023/04/08 19:20:56;;;;;;;0.30;0.30;;;;;;;15.19;52.01;97173.09;10423017;28;20117;-29
2023/04/08 19:25:57;;;;;;;0.33;0.30;;;;;;;15.23;51.60;97184.91;10443414;28;20484;-29
2023/04/08 19:30:57;;;;;;;0.30;0.30;;;;;;;15.23;51.43;97178.22;10446568;28;20098;-28
2023/04/08 19:35:58;;;;;;;0.35;0.30;;;;;;;15.08;51.38;97180.41;10441659;28;20292;-29
2023/04/08 19:40:58;;;;;;;0.30;0.30;;;;;;;15.13;50.81;97178.84;10444531;28;20052;-28
2023/04/08 19:45:58;;;;;;;0.30;0.30;;;;;;;15.13;51.00;97183.03;10444723;28;20036;-28
2023/04/08 19:50:59;;;;;;;0.23;0.23;;;;;;;15.08;51.57;97180.41;10449919;28;20060;-28
2023/04/08 19:56:00;;;;;;;0.20;0.20;;;;;;;15.11;51.49;97188.03;10446755;28;20033;-29
2023/04/08 20:01:02;;;;;;;0.40;0.35;;;;;;;15.11;51.46;97189.72;10429999;28;20060;-28
2023/04/08 20:06:03;;;;;;;0.30;0.30;;;;;;;15.11;51.35;97194.78;10449479;28;20021;-28
2023/04/08 20:11:03;;;;;;;0.20;0.20;;;;;;;15.12;51.15;97197.31;10447132;28;20033;-28
2023/04/08 20:16:03;;;;;;;0.27;0.27;;;;;;;15.10;51.20;97193.91;10443479;28;20504;-28
2023/04/08 20:21:05;;;;;;;0.20;0.20;;;;;;;15.10;51.68;97188.03;10438013;28;20029;-28
2023/04/08 20:26:06;;;;;;;0.20;0.20;;;;;;;15.11;51.44;97187.22;10447037;28;20036;-29
2023/04/08 20:31:08;;;;;;;0.20;0.20;;;;;;;15.00;51.51;97171.84;10429836;28;20036;-30
2023/04/08 20:36:11;;;;;;;0.20;0.20;;;;;;;15.09;51.37;97187.16;10434845;28;20395;-28
2023/04/08 20:41:16;;;;;;;0.20;0.20;;;;;;;15.08;51.46;97190.50;10436113;28;20041;-28
2023/04/08 20:46:17;;;;;;;0.30;0.30;;;;;;;15.15;51.82;97187.31;10431353;28;20024;-30
2023/04/08 20:51:17;;;;;;;0.50;0.40;;;;;;;15.19;51.14;97199.13;10440808;28;20040;-28
2023/04/08 20:56:20;;;;;;;0.60;0.30;;;;;;;15.18;50.95;97187.34;10453343;28;20299;-29
2023/04/08 21:01:22;;;;;;;0.43;0.40;;;;;;;15.09;51.00;97192.22;10447917;28;20159;-28
2023/04/08 21:06:23;;;;;;;0.30;0.28;;;;;;;15.11;50.74;97194.78;10431372;28;20462;-28
2023/04/08 21:11:23;;;;;;;0.20;0.20;;;;;;;15.09;51.29;97184.66;10444111;28;20067;-28
2023/04/08 21:16:23;;;;;;;0.30;0.30;;;;;;;15.09;51.30;97174.56;10455397;28;20053;-29
2023/04/08 21:21:24;;;;;;;0.20;0.20;;;;;;;15.10;51.36;97181.28;10443819;28;20331;-29
2023/04/08 21:26:25;;;;;;;0.40;0.20;;;;;;;15.08;51.06;97185.47;10439048;28;20316;-28
2023/04/08 21:31:26;;;;;;;0.40;0.40;;;;;;;15.07;51.62;97181.25;10435066;28;20112;-28
2023/04/08 21:36:26;;;;;;;0.25;0.25;;;;;;;15.09;51.75;97179.59;10446478;28;20028;-29
2023/04/08 21:41:27;;;;;;;0.20;0.20;;;;;;;15.07;51.58;97178.72;10435125;28;20037;-28
2023/04/08 21:46:29;;;;;;;0.37;0.37;;;;;;;15.06;51.58;97177.03;10454126;28;20025;-28
2023/04/08 21:51:30;;;;;;;0.40;0.40;;;;;;;15.05;51.55;97187.94;10445972;28;20294;-29
2023/04/08 21:56:30;;;;;;;0.43;0.32;;;;;;;15.05;51.33;97189.59;10450599;28;20384;-29
2023/04/08 22:01:31;;;;;;;0.20;0.20;;;;;;;15.05;51.34;97195.50;10445148;28;20506;-29
2023/04/08 22:06:31;;;;;;;0.15;0.15;;;;;;;15.05;51.46;97187.06;10445196;28;20033;-29
2023/04/08 22:11:32;;;;;;;0.40;0.40;;;;;;;15.08;51.89;97177.91;10427450;28;20036;-28
2023/04/08 22:16:32;;;;;;;0.50;0.50;;;;;;;15.16;50.97;97173.00;10435894;28;20291;-28
2023/04/08 22:21:33;;;;;;;0.40;0.40;;;;;;;15.15;51.15;97182.25;10436706;28;20411;-29
2023/04/08 22:26:33;;;;;;;0.50;0.43;;;;;;;15.08;50.93;97180.41;10449941;28;20055;-29
2023/04/08 22:31:36;;;;;;;0.67;0.40;;;;;;;15.03;50.92;97182.00;10444277;28;20033;-28
2023/04/08 22:36:36;;;;;;;0.55;0.40;;;;;;;15.05;50.86;97177.00;10443752;28;20460;-28
2023/04/08 22:41:36;;;;;;;0.33;0.33;;;;;;;15.05;51.14;97177.84;10449635;28;20033;-28
2023/04/08 22:46:37;;;;;;;0.30;0.30;;;;;;;15.04;50.94;97182.84;10450747;28;20291;-28
2023/04/08 22:51:37;;;;;;;0.33;0.30;;;;;;;15.03;51.15;97186.19;10436407;28;20345;-29
2023/04/08 22:56:37;;;;;;;0.47;0.40;;;;;;;15.02;51.33;97179.47;10439691;28;20037;-28
2023/04/08 23:01:38;;;;;;;0.30;0.27;;;;;;;15.00;51.14;97169.31;10442031;28;20115;-28
2023/04/08 23:06:38;;;;;;;0.40;0.40;;;;;;;15.02;51.24;97165.16;10443342;28;20455;-28
2023/04/08 23:11:39;;;;;;;0.40;0.40;;;;;;;15.00;51.96;97170.97;10447009;28;20384;-28
2023/04/08 23:16:39;;;;;;;0.40;0.20;;;;;;;15.00;51.50;97171.84;10434424;28;20029;-29
2023/04/08 23:21:40;;;;;;;0.22;0.22;;;;;;;15.00;51.43;97171.84;10436282;28;20304;-28